Time;durP1;ratioP1;P1;durP2;ratioP2;P2;SDS_P1;SDS_P2;PMS_P1;PMS_P2;Temp;Humidity;BMP_temperature;BMP_pressure;BME280_temperature;BME280_humidity;BME280_pressure;Samples;Min_cycle;Max_cycle;Signal;HPM_P1;HPM_P2
2024/01/04 00:01:51;;;;;;;13.87;3.00;;;9.00;99.90;;;;;;5084404;28;20188;-60
2024/01/04 00:04:20;;;;;;;17.53;3.77;;;9.00;99.90;;;;;;5082910;28;20235;-60
2024/01/04 00:06:48;;;;;;;13.50;3.30;;;9.10;99.90;;;;;;5086956;28;20774;-60
2024/01/04 00:09:17;;;;;;;13.70;3.07;;;9.10;99.90;;;;;;5085740;28;20231;-60
2024/01/04 00:11:45;;;;;;;12.60;3.77;;;9.20;99.90;;;;;;5082139;28;20763;-60
2024/01/04 00:14:13;;;;;;;14.97;3.07;;;9.10;99.90;;;;;;5084309;28;20215;-60
2024/01/04 00:16:43;;;;;;;20.13;3.83;;;9.10;99.90;;;;;;5086468;28;20213;-61
2024/01/04 00:19:11;;;;;;;13.57;2.80;;;9.10;99.90;;;;;;5083193;28;20219;-60
2024/01/04 00:21:40;;;;;;;14.07;3.50;;;9.10;99.90;;;;;;5082736;28;20314;-60
2024/01/04 00:24:08;;;;;;;19.30;3.47;;;9.00;99.90;;;;;;5079304;28;20227;-59
2024/01/04 00:26:37;;;;;;;17.03;3.30;;;9.00;99.90;;;;;;5086752;28;20314;-60
2024/01/04 00:29:05;;;;;;;18.47;3.63;;;9.00;99.90;;;;;;5080604;28;20239;-60
2024/01/04 00:31:33;;;;;;;19.97;3.60;;;9.00;99.90;;;;;;5083059;28;20216;-60
2024/01/04 00:34:03;;;;;;;10.90;3.53;;;9.00;99.90;;;;;;5081491;28;20318;-60
2024/01/04 00:36:31;;;;;;;19.00;3.93;;;9.00;99.90;;;;;;5081736;28;20548;-59
2024/01/04 00:39:00;;;;;;;16.07;3.10;;;9.00;99.90;;;;;;5081325;28;20218;-60
2024/01/04 00:41:28;;;;;;;16.47;3.40;;;9.00;99.90;;;;;;5083224;28;20227;-60
2024/01/04 00:43:56;;;;;;;10.23;3.40;;;9.00;99.90;;;;;;5086640;28;20200;-59
2024/01/04 00:46:25;;;;;;;14.63;3.57;;;9.00;99.90;;;;;;5084364;28;20228;-60
2024/01/04 00:48:53;;;;;;;11.90;3.20;;;9.00;99.90;;;;;;5088673;28;20212;-61
2024/01/04 00:51:23;;;;;;;16.47;3.67;;;9.00;99.90;;;;;;5087461;28;20219;-60
2024/01/04 00:53:51;;;;;;;12.97;3.33;;;9.00;99.90;;;;;;5085408;28;20242;-60
2024/01/04 00:56:20;;;;;;;15.83;3.30;;;9.10;99.90;;;;;;5086576;28;20196;-60
2024/01/04 00:58:48;;;;;;;13.67;3.10;;;9.10;99.90;;;;;;5087320;28;20195;-60
2024/01/04 01:01:16;;;;;;;13.80;3.00;;;9.00;99.90;;;;;;5086628;28;20689;-60
2024/01/04 01:03:44;;;;;;;13.47;3.37;;;9.00;99.90;;;;;;5085331;28;20239;-60
2024/01/04 01:06:12;;;;;;;10.47;3.17;;;9.00;99.90;;;;;;5086545;28;20219;-60
2024/01/04 01:08:42;;;;;;;17.97;3.60;;;9.00;99.90;;;;;;5084456;28;20219;-60
2024/01/04 01:11:11;;;;;;;16.13;3.50;;;9.10;99.90;;;;;;5082285;28;20620;-60
2024/01/04 01:13:40;;;;;;;12.27;3.00;;;9.10;99.90;;;;;;5086897;28;20187;-60
2024/01/04 01:16:09;;;;;;;18.40;3.37;;;9.10;99.90;;;;;;5087199;28;20216;-60
2024/01/04 01:18:38;;;;;;;13.60;2.90;;;9.10;99.90;;;;;;5087714;28;20237;-59
2024/01/04 01:21:06;;;;;;;10.10;3.47;;;9.10;99.90;;;;;;5082448;28;20232;-60
2024/01/04 01:23:35;;;;;;;10.97;3.40;;;9.10;99.90;;;;;;5085119;28;20393;-60
2024/01/04 01:26:05;;;;;;;12.63;2.73;;;9.10;99.90;;;;;;5086812;28;20195;-59
2024/01/04 01:28:33;;;;;;;10.73;3.40;;;9.10;99.90;;;;;;5088115;28;20236;-60
2024/01/04 01:31:02;;;;;;;14.40;3.13;;;9.10;99.90;;;;;;5087843;28;20223;-60
2024/01/04 01:33:30;;;;;;;11.77;2.97;;;9.10;99.90;;;;;;5084010;28;20219;-60
2024/01/04 01:36:01;;;;;;;5.83;2.73;;;9.10;99.90;;;;;;5084760;28;20296;-60
2024/01/04 01:38:29;;;;;;;14.47;3.40;;;9.00;99.90;;;;;;5082334;28;20224;-60
2024/01/04 01:40:58;;;;;;;13.07;3.17;;;9.10;99.90;;;;;;5084306;28;20203;-60
2024/01/04 01:43:32;;;;;;;14.13;3.10;;;9.10;99.90;;;;;;5083427;28;20207;-60
2024/01/04 01:46:00;;;;;;;11.23;2.90;;;9.10;99.90;;;;;;5086051;28;20215;-60
2024/01/04 01:48:29;;;;;;;10.30;3.03;;;9.00;99.90;;;;;;5084031;28;20219;-60
2024/01/04 01:50:59;;;;;;;10.33;3.10;;;9.10;99.90;;;;;;5085841;28;20538;-60
2024/01/04 01:53:27;;;;;;;10.77;2.60;;;9.10;99.90;;;;;;5080562;28;25650;-60
2024/01/04 01:55:56;;;;;;;11.97;2.90;;;9.10;99.90;;;;;;5081673;28;20578;-60
2024/01/04 01:58:24;;;;;;;8.83;3.13;;;9.10;99.90;;;;;;5078844;28;20215;-61
2024/01/04 02:00:54;;;;;;;14.13;3.03;;;9.10;99.90;;;;;;5077959;28;20219;-60
2024/01/04 02:03:23;;;;;;;7.57;2.70;;;9.00;99.90;;;;;;5078142;28;20250;-60
2024/01/04 02:05:51;;;;;;;7.63;2.80;;;9.10;99.90;;;;;;5080285;28;20227;-60
2024/01/04 02:08:20;;;;;;;11.13;3.17;;;9.10;99.90;;;;;;5079982;27;20187;-60
2024/01/04 02:10:48;;;;;;;8.60;3.00;;;9.10;99.90;;;;;;5081812;28;20524;-60
2024/01/04 02:13:16;;;;;;;9.50;2.80;;;9.20;99.90;;;;;;5078238;28;20238;-60
2024/01/04 02:15:45;;;;;;;7.23;3.10;;;9.20;99.90;;;;;;5078282;28;20674;-60
2024/01/04 02:18:14;;;;;;;9.73;2.60;;;9.10;99.90;;;;;;5086944;28;21826;-59
2024/01/04 02:20:43;;;;;;;11.53;2.53;;;9.20;99.90;;;;;;5084112;28;20559;-60
2024/01/04 02:23:16;;;;;;;8.40;2.43;;;9.20;99.90;;;;;;5079849;28;20195;-60
2024/01/04 02:25:45;;;;;;;8.70;2.30;;;9.20;99.90;;;;;;5080066;28;20195;-59
2024/01/04 02:28:13;;;;;;;10.43;3.00;;;9.20;99.90;;;;;;5080437;28;20826;-60
2024/01/04 02:30:41;;;;;;;12.03;2.70;;;9.30;99.90;;;;;;5081487;28;20289;-60
2024/01/04 02:33:09;;;;;;;6.70;2.70;;;9.20;99.90;;;;;;5081380;28;20218;-60
2024/01/04 02:35:38;;;;;;;9.37;2.80;;;9.20;99.90;;;;;;5079094;28;20761;-60
2024/01/04 02:38:07;;;;;;;13.33;2.87;;;9.20;99.90;;;;;;5081139;27;20184;-60
2024/01/04 02:40:36;;;;;;;7.80;2.60;;;9.20;99.90;;;;;;5080298;28;20600;-60
2024/01/04 02:43:09;;;;;;;8.47;2.70;;;9.20;99.90;;;;;;5074842;28;20230;-60
2024/01/04 02:45:37;;;;;;;5.30;2.57;;;9.20;99.90;;;;;;5080187;27;20239;-59
2024/01/04 02:48:06;;;;;;;5.37;2.30;;;9.20;99.90;;;;;;5082763;28;20589;-60
2024/01/04 02:50:35;;;;;;;5.53;2.23;;;9.20;99.90;;;;;;5080850;28;20313;-60
2024/01/04 02:53:03;;;;;;;5.83;2.20;;;9.20;99.90;;;;;;5081899;28;20591;-60
2024/01/04 02:55:32;;;;;;;6.03;2.27;;;9.20;99.90;;;;;;5083259;28;20226;-60
2024/01/04 02:58:01;;;;;;;6.57;2.20;;;9.20;99.90;;;;;;5080728;28;20219;-60
2024/01/04 03:00:29;;;;;;;7.67;3.00;;;9.20;99.90;;;;;;5081708;28;20216;-60
2024/01/04 03:02:58;;;;;;;8.07;2.47;;;9.20;99.90;;;;;;5080039;28;20706;-60
2024/01/04 03:05:26;;;;;;;6.23;2.40;;;9.20;99.90;;;;;;5077987;28;20231;-60
2024/01/04 03:07:54;;;;;;;11.73;2.40;;;9.10;99.90;;;;;;5078189;28;20735;-59
2024/01/04 03:10:22;;;;;;;3.77;1.90;;;9.20;99.90;;;;;;5082705;27;20227;-60
2024/01/04 03:12:51;;;;;;;6.77;2.40;;;9.20;99.90;;;;;;5084170;28;20215;-61
2024/01/04 03:15:20;;;;;;;7.03;2.23;;;9.10;99.90;;;;;;5077686;27;20255;-61
2024/01/04 03:17:49;;;;;;;9.20;2.40;;;9.10;99.90;;;;;;5077424;28;20762;-60
2024/01/04 03:20:17;;;;;;;6.50;2.07;;;9.10;99.90;;;;;;5077283;28;20192;-60
2024/01/04 03:22:45;;;;;;;5.73;2.53;;;9.00;99.90;;;;;;5082007;28;20188;-60
2024/01/04 03:25:14;;;;;;;8.80;2.27;;;9.10;99.90;;;;;;5077067;28;20330;-60
2024/01/04 03:27:43;;;;;;;2.97;2.00;;;9.10;99.90;;;;;;5079282;28;20219;-60
2024/01/04 03:30:12;;;;;;;6.60;2.63;;;9.10;99.90;;;;;;5080589;28;20221;-60
2024/01/04 03:32:42;;;;;;;3.90;2.30;;;9.10;99.90;;;;;;5080211;28;20709;-60
2024/01/04 03:35:10;;;;;;;6.27;2.50;;;9.10;99.90;;;;;;5084100;28;20192;-60
2024/01/04 03:37:39;;;;;;;4.00;2.20;;;9.10;99.90;;;;;;5085490;28;20180;-60
2024/01/04 03:40:08;;;;;;;5.03;2.07;;;9.10;99.90;;;;;;5083859;28;20215;-60
2024/01/04 03:42:36;;;;;;;4.87;2.47;;;9.10;99.90;;;;;;5084078;28;20218;-60
2024/01/04 03:45:06;;;;;;;5.60;2.43;;;9.10;99.90;;;;;;5084807;28;20233;-60
2024/01/04 03:47:35;;;;;;;7.40;2.20;;;9.10;99.90;;;;;;5085888;28;20660;-60
2024/01/04 03:50:06;;;;;;;7.33;2.30;;;9.10;99.90;;;;;;5080462;28;20278;-59
2024/01/04 03:52:34;;;;;;;4.00;2.20;;;9.10;99.90;;;;;;5085068;28;20207;-60
2024/01/04 03:55:03;;;;;;;8.90;2.10;;;9.10;99.90;;;;;;5084568;27;20219;-60
2024/01/04 03:57:31;;;;;;;4.27;1.70;;;9.10;99.90;;;;;;5082693;28;20253;-60
2024/01/04 04:00:01;;;;;;;4.53;1.80;;;9.20;99.90;;;;;;5087599;28;20667;-60
2024/01/04 04:02:29;;;;;;;6.40;2.00;;;9.20;99.90;;;;;;5086395;28;20227;-60
2024/01/04 04:04:57;;;;;;;7.90;1.77;;;9.20;99.90;;;;;;5085789;28;20231;-60
2024/01/04 04:07:27;;;;;;;2.50;1.70;;;9.20;99.90;;;;;;5080104;28;20219;-60
2024/01/04 04:09:56;;;;;;;6.73;1.80;;;9.20;99.90;;;;;;5083998;28;20223;-60
2024/01/04 04:12:24;;;;;;;4.73;1.73;;;9.20;99.90;;;;;;5085121;28;20219;-60
2024/01/04 04:14:54;;;;;;;3.40;1.70;;;9.10;99.90;;;;;;5082865;28;20685;-60
2024/01/04 04:17:24;;;;;;;4.93;2.10;;;9.20;99.90;;;;;;5084333;28;20234;-60
2024/01/04 04:19:52;;;;;;;3.63;1.93;;;9.10;99.90;;;;;;5082221;28;20212;-60
2024/01/04 04:22:21;;;;;;;5.17;1.80;;;9.10;99.90;;;;;;5084226;28;20302;-60
2024/01/04 04:24:50;;;;;;;4.03;1.77;;;9.20;99.90;;;;;;5081100;28;20211;-60
2024/01/04 04:27:18;;;;;;;3.60;2.03;;;9.20;99.90;;;;;;5084295;27;20229;-60
2024/01/04 04:29:47;;;;;;;8.33;1.90;;;9.20;99.90;;;;;;5084109;28;20272;-60
2024/01/04 04:32:15;;;;;;;6.00;2.10;;;9.20;99.90;;;;;;5081095;28;20290;-60
2024/01/04 04:34:43;;;;;;;2.27;1.80;;;9.20;99.90;;;;;;5085704;28;20634;-60
2024/01/04 04:37:13;;;;;;;6.80;2.00;;;9.20;99.90;;;;;;5083478;28;20211;-59
2024/01/04 04:39:40;;;;;;;6.80;2.10;;;9.10;99.90;;;;;;5083536;28;20665;-60
2024/01/04 04:42:10;;;;;;;5.63;2.13;;;9.10;99.90;;;;;;5081281;28;20223;-60
2024/01/04 04:44:38;;;;;;;11.70;2.20;;;9.10;99.90;;;;;;5083049;28;20247;-60
2024/01/04 04:47:06;;;;;;;6.10;1.90;;;9.10;99.90;;;;;;5084738;28;20278;-60
2024/01/04 04:49:34;;;;;;;5.00;2.17;;;9.10;99.90;;;;;;5086490;28;20546;-60
2024/01/04 04:52:03;;;;;;;7.30;2.00;;;9.10;99.90;;;;;;5079346;28;20218;-59
2024/01/04 04:54:31;;;;;;;6.40;2.10;;;9.10;99.90;;;;;;5081279;28;20234;-60
2024/01/04 04:57:00;;;;;;;4.50;1.73;;;9.10;99.90;;;;;;5083637;28;20238;-60
2024/01/04 04:59:30;;;;;;;6.20;1.80;;;9.10;99.90;;;;;;5080210;28;20236;-60
2024/01/04 05:01:58;;;;;;;5.00;1.83;;;9.10;99.90;;;;;;5080450;28;20245;-60
2024/01/04 05:04:26;;;;;;;6.73;2.37;;;9.10;99.90;;;;;;5086113;28;20265;-59
2024/01/04 05:06:55;;;;;;;5.10;1.93;;;9.10;99.90;;;;;;5087027;28;20231;-60
2024/01/04 05:09:23;;;;;;;7.13;2.03;;;9.10;99.90;;;;;;5080463;28;20694;-60
2024/01/04 05:11:51;;;;;;;7.57;2.03;;;9.10;99.90;;;;;;5082132;28;20219;-60
2024/01/04 05:14:20;;;;;;;5.30;2.00;;;9.10;99.90;;;;;;5082698;28;20241;-60
2024/01/04 05:16:50;;;;;;;6.70;2.20;;;9.10;99.90;;;;;;5085624;28;20196;-60
2024/01/04 05:19:18;;;;;;;5.60;2.10;;;9.10;99.90;;;;;;5082935;28;20589;-60
2024/01/04 05:21:46;;;;;;;4.37;2.10;;;9.10;99.90;;;;;;5082153;28;20226;-60
2024/01/04 05:24:15;;;;;;;7.93;2.07;;;9.10;99.90;;;;;;5082031;28;20660;-60
2024/01/04 05:26:43;;;;;;;4.47;2.10;;;9.10;99.90;;;;;;5075377;28;20223;-60
2024/01/04 05:29:12;;;;;;;7.63;2.30;;;9.00;99.90;;;;;;5079656;28;20220;-60
2024/01/04 05:31:40;;;;;;;8.30;2.57;;;9.10;99.90;;;;;;5084445;28;20222;-60
2024/01/04 05:34:10;;;;;;;8.43;3.07;;;9.10;99.90;;;;;;5081413;28;20218;-60
2024/01/04 05:36:39;;;;;;;10.50;2.30;;;9.10;99.90;;;;;;5079321;28;20215;-60
2024/01/04 05:39:10;;;;;;;10.07;2.50;;;9.10;99.90;;;;;;5081766;28;20689;-60
2024/01/04 05:41:38;;;;;;;10.67;3.13;;;9.10;99.90;;;;;;5082455;28;20223;-59
2024/01/04 05:44:07;;;;;;;5.90;2.40;;;9.10;99.90;;;;;;5079666;28;20199;-60
2024/01/04 05:46:35;;;;;;;6.20;2.47;;;9.10;99.90;;;;;;5080602;28;20196;-60
2024/01/04 05:49:04;;;;;;;6.17;2.70;;;9.10;99.90;;;;;;5079770;28;20240;-60
2024/01/04 05:51:34;;;;;;;12.80;3.00;;;9.10;99.90;;;;;;5079282;28;20666;-60
2024/01/04 05:54:10;;;;;;;6.73;2.70;;;9.10;99.90;;;;;;5084723;28;20225;-60
2024/01/04 05:56:38;;;;;;;11.97;3.13;;;9.00;99.90;;;;;;5083986;27;20246;-60
2024/01/04 05:59:07;;;;;;;6.43;2.53;;;9.00;99.90;;;;;;5084726;28;20199;-60
2024/01/04 06:01:36;;;;;;;9.90;2.67;;;9.00;99.90;;;;;;5079237;28;20765;-60
2024/01/04 06:04:05;;;;;;;4.90;2.33;;;9.00;99.90;;;;;;5082732;28;20285;-60
2024/01/04 06:06:35;;;;;;;5.37;2.83;;;9.00;99.90;;;;;;5083159;28;20251;-60
2024/01/04 06:09:04;;;;;;;5.47;2.53;;;9.00;99.90;;;;;;5082288;28;20614;-60
2024/01/04 06:11:33;;;;;;;8.87;2.90;;;9.10;99.90;;;;;;5080082;28;20216;-60
2024/01/04 06:14:03;;;;;;;6.43;2.60;;;9.10;99.90;;;;;;5080447;28;20207;-60
2024/01/04 06:16:31;;;;;;;9.57;3.13;;;9.00;99.90;;;;;;5083517;28;20313;-60
2024/01/04 06:19:00;;;;;;;9.40;2.97;;;9.00;99.90;;;;;;5082248;28;20570;-59
2024/01/04 06:21:28;;;;;;;8.10;2.90;;;9.00;99.90;;;;;;5076749;28;20309;-60
2024/01/04 06:23:58;;;;;;;9.27;3.10;;;9.00;99.90;;;;;;5081741;28;20223;-60
2024/01/04 06:26:26;;;;;;;7.73;2.57;;;9.00;99.90;;;;;;5084148;28;20219;-60
2024/01/04 06:28:54;;;;;;;8.40;3.23;;;9.00;99.90;;;;;;5084042;28;20221;-60
2024/01/04 06:31:23;;;;;;;6.37;2.97;;;9.00;99.90;;;;;;5078706;28;20322;-60
2024/01/04 06:33:51;;;;;;;11.10;2.80;;;9.00;99.90;;;;;;5081255;28;20223;-60
2024/01/04 06:36:19;;;;;;;8.20;3.37;;;8.90;99.90;;;;;;5085514;28;20223;-60
2024/01/04 06:38:50;;;;;;;5.47;3.03;;;8.90;99.90;;;;;;5081262;28;20228;-60
2024/01/04 06:41:20;;;;;;;7.03;2.80;;;8.90;99.90;;;;;;5077923;28;20199;-60
2024/01/04 06:43:49;;;;;;;7.23;2.50;;;8.90;99.90;;;;;;5083410;28;20188;-60
2024/01/04 06:46:17;;;;;;;8.30;2.90;;;8.90;99.90;;;;;;5083334;28;20212;-60
2024/01/04 06:48:45;;;;;;;6.83;2.70;;;8.90;99.90;;;;;;5082811;28;20215;-60
2024/01/04 06:51:13;;;;;;;9.87;3.07;;;8.90;99.90;;;;;;5076196;28;20224;-60
2024/01/04 06:53:42;;;;;;;6.63;2.73;;;8.90;99.90;;;;;;5079676;27;20297;-60
2024/01/04 06:56:12;;;;;;;5.67;2.50;;;8.80;99.90;;;;;;5082642;27;20184;-59
2024/01/04 06:58:42;;;;;;;6.47;2.60;;;8.80;99.90;;;;;;5080375;28;20218;-60
2024/01/04 07:01:10;;;;;;;5.00;2.10;;;8.80;99.90;;;;;;5078858;28;20215;-59
2024/01/04 07:03:39;;;;;;;5.77;2.10;;;8.80;99.90;;;;;;5083727;28;20228;-60
2024/01/04 07:06:08;;;;;;;7.10;1.90;;;8.70;99.90;;;;;;5077562;28;20555;-60
2024/01/04 07:08:36;;;;;;;9.53;2.27;;;8.60;99.90;;;;;;5079733;27;20231;-60
2024/01/04 07:11:06;;;;;;;6.00;2.50;;;8.60;99.90;;;;;;5081493;28;20637;-60
2024/01/04 07:13:34;;;;;;;8.43;2.30;;;8.60;99.90;;;;;;5082845;28;20222;-59
2024/01/04 07:16:06;;;;;;;7.73;2.60;;;8.60;99.90;;;;;;5080613;28;20283;-60
2024/01/04 07:18:34;;;;;;;12.70;2.80;;;8.60;99.90;;;;;;5080292;28;20225;-60
2024/01/04 07:21:03;;;;;;;9.37;2.60;;;8.60;99.90;;;;;;5083389;27;20585;-60
2024/01/04 07:23:31;;;;;;;9.50;2.73;;;8.70;99.90;;;;;;5076443;28;20219;-60
2024/01/04 07:26:00;;;;;;;10.03;2.70;;;8.70;99.90;;;;;;5084932;28;20268;-60
2024/01/04 07:28:29;;;;;;;9.27;2.37;;;8.70;99.90;;;;;;5072004;28;20574;-60
2024/01/04 07:30:57;;;;;;;11.50;2.50;;;8.70;99.90;;;;;;5080108;28;20207;-60
2024/01/04 07:33:27;;;;;;;9.67;2.30;;;8.70;99.90;;;;;;5082469;28;20223;-60
2024/01/04 07:35:56;;;;;;;11.20;2.83;;;8.80;99.90;;;;;;5080240;28;20222;-60
2024/01/04 07:38:24;;;;;;;10.40;2.63;;;8.80;99.90;;;;;;5082914;28;20598;-60
2024/01/04 07:40:52;;;;;;;15.33;2.57;;;8.80;99.90;;;;;;5081410;28;20204;-60
2024/01/04 07:43:21;;;;;;;11.47;3.03;;;8.80;99.90;;;;;;5081372;28;20208;-60
2024/01/04 07:45:49;;;;;;;11.43;2.67;;;8.80;99.90;;;;;;5079156;28;21565;-60
2024/01/04 07:48:18;;;;;;;14.00;3.10;;;8.80;99.90;;;;;;5077780;28;20219;-60
2024/01/04 07:50:47;;;;;;;11.40;2.97;;;8.80;99.90;;;;;;5081366;28;20310;-60
2024/01/04 07:53:16;;;;;;;15.87;3.17;;;8.80;99.90;;;;;;5082140;27;20293;-60
2024/01/04 07:55:45;;;;;;;11.47;3.53;;;8.90;99.90;;;;;;5075696;28;20299;-60
2024/01/04 07:58:13;;;;;;;22.00;3.60;;;8.90;99.90;;;;;;5077012;28;20227;-60
2024/01/04 08:00:41;;;;;;;12.60;3.23;;;8.90;99.90;;;;;;5082078;28;20227;-60
2024/01/04 08:03:09;;;;;;;16.80;3.10;;;8.90;99.90;;;;;;5083569;28;20231;-60
2024/01/04 08:05:38;;;;;;;15.03;3.57;;;8.90;99.90;;;;;;5078196;28;20260;-60
2024/01/04 08:08:08;;;;;;;13.30;3.40;;;8.90;99.90;;;;;;5079369;28;20191;-60
2024/01/04 08:10:36;;;;;;;18.23;3.80;;;8.90;99.90;;;;;;5080598;28;20195;-60
2024/01/04 08:13:05;;;;;;;20.53;3.30;;;8.90;99.90;;;;;;5079524;28;20220;-60
2024/01/04 08:15:34;;;;;;;24.63;3.77;;;9.00;99.90;;;;;;5081333;28;20254;-60
2024/01/04 08:18:02;;;;;;;17.07;3.80;;;8.90;99.90;;;;;;5080622;28;20215;-60
2024/01/04 08:20:34;;;;;;;29.30;4.73;;;8.90;99.90;;;;;;5083601;28;20231;-60
2024/01/04 08:23:03;;;;;;;18.93;4.10;;;8.90;99.90;;;;;;5081389;28;20324;-59
2024/01/04 08:25:33;;;;;;;17.03;3.80;;;9.00;99.90;;;;;;5083453;28;20206;-60
2024/01/04 08:28:01;;;;;;;25.60;4.57;;;9.00;99.90;;;;;;5088412;28;20683;-60
2024/01/04 08:30:29;;;;;;;22.10;3.60;;;9.00;99.90;;;;;;5080687;28;20231;-60
2024/01/04 08:32:58;;;;;;;25.20;4.43;;;9.00;99.90;;;;;;5080797;28;20261;-60
2024/01/04 08:35:26;;;;;;;31.03;4.57;;;9.00;99.90;;;;;;5081134;28;20231;-60
2024/01/04 08:37:54;;;;;;;23.27;3.90;;;9.10;99.90;;;;;;5084097;28;20200;-60
2024/01/04 08:40:23;;;;;;;23.53;4.30;;;9.00;99.90;;;;;;5083745;28;20223;-59
2024/01/04 08:42:52;;;;;;;26.70;4.97;;;9.00;99.90;;;;;;5085969;28;20219;-59
2024/01/04 08:45:21;;;;;;;21.80;3.70;;;9.00;99.90;;;;;;5084211;28;20217;-60
2024/01/04 08:47:49;;;;;;;24.63;4.57;;;9.00;99.90;;;;;;5082716;28;20211;-60
2024/01/04 08:50:17;;;;;;;21.40;4.27;;;9.00;99.90;;;;;;5085655;28;20192;-60
2024/01/04 08:52:46;;;;;;;19.47;3.83;;;9.00;99.90;;;;;;5087211;28;20274;-59
2024/01/04 08:55:14;;;;;;;19.17;4.30;;;9.00;99.90;;;;;;5085416;27;20223;-60
2024/01/04 08:57:42;;;;;;;22.70;4.57;;;8.90;99.90;;;;;;5085436;28;20226;-60
2024/01/04 09:00:14;;;;;;;28.70;5.10;;;9.00;99.90;;;;;;5087040;28;20212;-60
2024/01/04 09:02:45;;;;;;;18.87;3.93;;;9.00;99.90;;;;;;5082537;28;20227;-60
2024/01/04 09:05:14;;;;;;;23.50;4.37;;;9.10;99.90;;;;;;5084231;28;20229;-60
2024/01/04 09:07:42;;;;;;;26.43;4.30;;;9.20;99.90;;;;;;5084079;28;20228;-59
2024/01/04 09:10:10;;;;;;;28.43;4.83;;;9.20;99.90;;;;;;5085821;28;20229;-60
2024/01/04 09:12:39;;;;;;;24.13;4.20;;;9.20;99.90;;;;;;5079892;28;20261;-60
2024/01/04 09:15:09;;;;;;;21.80;4.17;;;9.10;99.90;;;;;;5082183;28;20235;-60
2024/01/04 09:17:41;;;;;;;26.87;4.87;;;9.00;99.90;;;;;;5085301;28;20249;-60
2024/01/04 09:20:10;;;;;;;25.93;4.20;;;8.90;99.90;;;;;;5082216;28;20580;-60
2024/01/04 09:22:38;;;;;;;33.73;4.40;;;8.90;99.90;;;;;;5082062;28;20214;-59
2024/01/04 09:25:07;;;;;;;31.17;4.90;;;8.90;99.90;;;;;;5081290;28;20709;-60
2024/01/04 09:27:36;;;;;;;25.53;4.63;;;9.00;99.90;;;;;;5079087;28;20274;-60
2024/01/04 09:30:05;;;;;;;27.80;5.13;;;9.10;99.90;;;;;;5082264;28;20238;-60
2024/01/04 09:32:33;;;;;;;24.77;4.03;;;9.10;99.90;;;;;;5085028;27;20566;-59
2024/01/04 09:35:03;;;;;;;26.03;4.57;;;9.10;99.90;;;;;;5084602;28;20214;-56
2024/01/04 09:37:32;;;;;;;19.43;4.70;;;9.00;99.90;;;;;;5082687;28;20194;-60
2024/01/04 09:40:00;;;;;;;20.93;3.90;;;9.10;99.90;;;;;;5080708;28;20220;-60
2024/01/04 09:42:37;;;;;;;27.53;4.30;;;9.10;99.90;;;;;;5083521;28;20220;-60
2024/01/04 09:45:10;;;;;;;21.03;3.70;;;9.10;99.90;;;;;;5082329;28;20522;-59
2024/01/04 09:47:41;;;;;;;23.83;4.40;;;9.20;99.90;;;;;;5083502;28;20216;-60
2024/01/04 09:50:12;;;;;;;20.33;4.43;;;9.30;99.90;;;;;;5075110;28;20203;-60
2024/01/04 09:52:45;;;;;;;25.60;4.83;;;9.40;99.90;;;;;;5081330;28;20207;-60
2024/01/04 09:55:13;;;;;;;19.13;4.40;;;9.50;99.90;;;;;;5088947;28;20245;-60
2024/01/04 09:57:42;;;;;;;18.20;3.90;;;9.50;99.90;;;;;;5086051;28;20220;-60
2024/01/04 10:00:11;;;;;;;25.50;4.00;;;9.60;99.90;;;;;;5085531;28;20214;-59
2024/01/04 10:02:42;;;;;;;24.47;4.73;;;9.70;99.90;;;;;;5079670;28;20224;-59
2024/01/04 10:05:16;;;;;;;22.03;4.37;;;9.90;99.90;;;;;;5078349;28;20229;-59
2024/01/04 10:07:49;;;;;;;24.83;4.33;;;10.00;99.90;;;;;;5079504;28;20191;-59
2024/01/04 10:10:20;;;;;;;23.10;4.53;;;10.00;99.90;;;;;;5083290;28;20223;-59
2024/01/04 10:12:49;;;;;;;20.90;4.23;;;10.00;99.90;;;;;;5082493;28;20215;-59
2024/01/04 10:15:17;;;;;;;21.60;3.90;;;10.10;99.90;;;;;;5083187;28;20233;-60
2024/01/04 10:17:47;;;;;;;20.13;3.87;;;10.20;99.90;;;;;;5082353;28;20306;-59
2024/01/04 10:20:17;;;;;;;20.27;3.97;;;10.30;99.90;;;;;;5083666;28;20191;-59
2024/01/04 10:22:47;;;;;;;20.17;3.90;;;10.30;99.90;;;;;;5082550;28;20192;-59
2024/01/04 10:25:18;;;;;;;25.23;4.17;;;10.20;99.90;;;;;;5085350;28;20642;-59
2024/01/04 10:27:56;;;;;;;29.30;4.27;;;10.20;99.90;;;;;;5082022;28;20256;-60
2024/01/04 10:30:24;;;;;;;19.27;4.10;;;10.10;99.90;;;;;;5081721;28;20378;-59
2024/01/04 10:32:53;;;;;;;22.40;4.07;;;10.10;99.90;;;;;;5080321;28;21162;-60
2024/01/04 10:35:31;;;;;;;22.40;3.80;;;10.10;99.90;;;;;;5078603;28;20203;-60
2024/01/04 10:38:00;;;;;;;15.83;3.37;;;10.10;99.90;;;;;;5078541;28;20194;-59
2024/01/04 10:40:29;;;;;;;23.03;3.90;;;10.10;99.90;;;;;;5080027;28;20249;-59
2024/01/04 10:43:01;;;;;;;19.73;3.53;;;10.20;99.90;;;;;;5076631;28;20247;-59
2024/01/04 10:45:30;;;;;;;15.57;3.40;;;10.30;99.90;;;;;;5081189;28;20724;-59
2024/01/04 10:47:59;;;;;;;16.57;3.83;;;10.20;99.90;;;;;;5081897;28;20227;-59
2024/01/04 10:50:34;;;;;;;16.57;3.80;;;10.10;99.90;;;;;;5078479;28;20220;-59
2024/01/04 10:53:04;;;;;;;17.40;3.80;;;10.00;99.90;;;;;;5081710;27;20573;-58
2024/01/04 10:55:33;;;;;;;20.37;3.63;;;10.00;99.90;;;;;;5081584;28;20199;-59
2024/01/04 10:58:04;;;;;;;15.33;3.40;;;9.90;99.90;;;;;;5082438;28;20302;-59
2024/01/04 11:00:33;;;;;;;14.10;3.63;;;9.90;99.90;;;;;;5085206;28;20224;-59
2024/01/04 11:03:06;;;;;;;23.83;4.10;;;10.00;99.90;;;;;;5084463;28;20305;-59
2024/01/04 11:05:37;;;;;;;25.03;4.37;;;10.10;99.90;;;;;;5083273;28;20219;-59
2024/01/04 11:08:07;;;;;;;25.40;3.50;;;10.20;99.90;;;;;;5078579;28;20554;-59
2024/01/04 11:10:36;;;;;;;19.97;3.43;;;10.30;99.90;;;;;;5080604;28;20223;-60
2024/01/04 11:13:05;;;;;;;19.70;3.20;;;10.40;99.90;;;;;;5080214;28;20214;-60
2024/01/04 11:15:33;;;;;;;24.33;3.83;;;10.60;99.90;;;;;;5084780;28;20261;-59
2024/01/04 11:18:29;;;;;;;16.03;3.17;;;10.80;99.90;;;;;;5083344;28;20219;-59
2024/01/04 11:21:25;;;;;;;18.10;3.50;;;10.90;99.90;;;;;;5081071;28;20211;-59
2024/01/04 11:24:02;;;;;;;10.83;2.83;;;11.00;99.90;;;;;;5081661;28;20788;-59
2024/01/04 11:26:40;;;;;;;14.10;3.20;;;11.00;99.90;;;;;;5081305;28;20226;-59
2024/01/04 11:29:10;;;;;;;15.80;3.30;;;11.00;99.90;;;;;;5080011;28;20713;-60
2024/01/04 11:31:43;;;;;;;16.07;3.30;;;11.00;99.90;;;;;;5078013;28;20183;-61
2024/01/04 11:34:15;;;;;;;20.87;3.70;;;11.00;99.90;;;;;;5085417;28;20260;-60
2024/01/04 11:36:47;;;;;;;22.23;3.23;;;11.10;99.90;;;;;;5079250;28;20236;-59
2024/01/04 11:39:27;;;;;;;21.47;3.57;;;11.10;99.90;;;;;;5080836;28;20306;-59
2024/01/04 11:41:57;;;;;;;15.27;3.43;;;11.00;99.90;;;;;;5079019;28;20218;-58
2024/01/04 11:44:36;;;;;;;20.13;3.63;;;11.10;99.90;;;;;;5083671;28;20274;-59
2024/01/04 11:47:14;;;;;;;22.40;4.07;;;11.10;99.90;;;;;;5083387;28;20187;-59
2024/01/04 11:49:48;;;;;;;17.30;3.93;;;11.20;99.90;;;;;;5081534;28;20194;-59
2024/01/04 11:52:31;;;;;;;16.90;3.73;;;11.30;99.90;;;;;;5079959;28;20219;-59
2024/01/04 11:55:00;;;;;;;23.33;3.90;;;11.30;99.90;;;;;;5082228;28;20237;-59
2024/01/04 11:57:29;;;;;;;18.83;3.57;;;11.20;99.90;;;;;;5094832;27;20350;-59
2024/01/04 12:00:00;;;;;;;15.70;3.27;;;11.10;99.90;;;;;;5092121;27;20220;-60
2024/01/04 12:02:37;;;;;;;15.17;3.47;;;11.10;99.90;;;;;;5085145;28;20608;-59
2024/01/04 12:05:07;;;;;;;19.03;3.47;;;11.10;99.90;;;;;;5088372;27;20219;-59
2024/01/04 12:07:41;;;;;;;17.03;3.30;;;11.10;99.90;;;;;;5102423;28;20199;-59
2024/01/04 12:10:10;;;;;;;18.70;3.70;;;11.10;99.90;;;;;;5087325;27;20679;-59
2024/01/04 12:12:43;;;;;;;10.23;3.20;;;11.00;99.90;;;;;;5080981;28;20220;-59
2024/01/04 12:15:19;;;;;;;16.87;3.60;;;10.80;99.90;;;;;;5076986;28;20237;-59
2024/01/04 12:17:48;;;;;;;17.53;3.30;;;10.80;99.90;;;;;;5083819;28;20219;-59
2024/01/04 12:20:18;;;;;;;18.23;3.87;;;10.80;99.90;;;;;;5081441;28;20910;-60
2024/01/04 12:22:51;;;;;;;20.07;3.40;;;10.90;99.90;;;;;;5087167;28;20186;-59
2024/01/04 12:25:20;;;;;;;22.33;3.97;;;11.00;99.90;;;;;;5085177;28;20215;-59
2024/01/04 12:27:52;;;;;;;19.90;4.00;;;11.10;99.90;;;;;;5081598;28;20720;-59
2024/01/04 12:30:21;;;;;;;16.70;3.20;;;11.10;99.90;;;;;;5075577;28;20215;-60
2024/01/04 12:32:52;;;;;;;18.27;3.30;;;11.00;99.90;;;;;;5080562;28;20758;-59
2024/01/04 12:35:21;;;;;;;19.20;4.03;;;11.00;99.90;;;;;;5083493;28;20252;-60
2024/01/04 12:38:00;;;;;;;23.23;4.07;;;10.90;99.90;;;;;;5086778;28;20188;-59
2024/01/04 12:40:40;;;;;;;20.53;3.43;;;10.90;99.90;;;;;;4981213;28;20615;-59
2024/01/04 12:43:13;;;;;;;17.10;3.43;;;10.90;99.90;;;;;;4980752;28;20221;-60
2024/01/04 12:45:42;;;;;;;16.03;3.67;;;11.00;99.90;;;;;;5053279;28;20759;-60
2024/01/04 12:48:11;;;;;;;21.63;3.67;;;11.00;99.90;;;;;;5082359;28;20219;-59
2024/01/04 12:50:41;;;;;;;21.17;3.70;;;11.00;99.90;;;;;;5079010;28;20227;-59
2024/01/04 12:53:12;;;;;;;16.70;3.37;;;11.00;99.90;;;;;;5079430;28;20199;-59
2024/01/04 12:55:41;;;;;;;17.73;3.80;;;11.10;99.90;;;;;;4958857;28;20199;-59
2024/01/04 12:58:13;;;;;;;14.97;3.80;;;11.20;99.90;;;;;;4962684;28;20674;-59
2024/01/04 13:00:42;;;;;;;18.97;3.83;;;11.10;99.90;;;;;;4963509;28;20282;-60